Kunsan Air Base
RKJK : now visible

Airfield :











YOU CAN JOIN US ON...

 
LOGIN :

Register | Disclaimer

   EN    FR    IT 

 









Legend :    VFR   Marginal VFR   IFR   Intensive IFR   Very Intensive IFR
Visi :
Ceiling :
>= 8 km
>= 3000ft
5 to 8 km
1000 to 3000 ft
1500m to 5 km
500 to 1000 ft
800 to 1500m
200 to 500 ft
< 800m
< 200 ft
Symbols :   Thunderstorms  Fog  Heavy snow  Heavy precipitations  Wind > 20 kt






- Airport Elevation : 29 ft
- IATA code : KUV


RKJK - Kunsan Air Base

CURRENT METAR :
  • 190556Z AUTO 29013KT 10SM CLR 21/16 A3011 RMK AO2 SLP200 T02080162 10210 20167 56011 $

EXPIRED METARs :
  • 190456Z AUTO 30012KT 10SM CLR 21/16 A3011 RMK AO2 SLP200 T02090156 $
  • 190356Z AUTO 29010KT 10SM CLR 21/14 A3012 RMK AO2 SLP204 T02050144 $

TAF TAF RKJK
Valid from the 18 at 23:00 until the 20 at 05:00 UTC


182300Z 1823/2005 VRB06KT 9999 SCT027 QNH3015INS
BECMG 1904/1905 33010G15KT 9999 FEW040 QNH3015INS
BECMG 1910/1911 VRB06KT 9999 SCT020 QNH3019INS
BECMG 1917/1918 VRB06KT 6000 BR SCT027 QNH3022INS
BECMG 1922/1923 VRB06KT 3200 BR SCT027 QNH3024INS
BECMG 1923/1924 VRB06KT 9999 NSW SCT027 QNH3018INS TX23/1906Z TN12/1922Z



MET'MAP, your aeronautical weather chart ! - Copyright ORBIFLY December 2007 - Disclaimer

ORBIFLY MET'MAP TEAM :

Programming & Development : Alexandra Zaïnal
Concept & Development : Baudouin d'Aumeries
Co-Development & Prog : Marc-Olivier Méhu
Technical & hardware support : Manuel Goepfert

Contact : metmap@orbifly.com




SOURCES & CREDITS :

   NOAA       Earth
Advisory